createdAt,value
2023-03-03T00:03:08.770Z,479.65217
2023-03-03T00:08:10.425Z,489.13274
2023-03-03T00:13:12.237Z,461.64706
2023-03-03T00:18:13.902Z,489.13274
2023-03-03T00:23:15.547Z,475.03448
2023-03-03T00:28:17.530Z,475.03448
2023-03-03T00:33:19.164Z,390.37681
2023-03-03T00:38:20.781Z,429.03937
2023-03-03T00:43:22.490Z,403.70149
2023-03-03T00:48:24.104Z,387.16547
2023-03-03T00:53:25.692Z,374.76923
2023-03-03T00:58:27.355Z,371.77778
2023-03-03T01:03:29.087Z,317.33333
2023-03-03T01:08:30.675Z,333.87342
2023-03-03T01:13:32.322Z,380.87943
2023-03-03T01:18:33.932Z,344
2023-03-03T01:23:35.543Z,344
2023-03-03T01:28:37.229Z,336.35669
2023-03-03T01:33:38.856Z,377.80282
2023-03-03T01:38:40.534Z,363.04762
2023-03-03T01:43:42.265Z,357.42282
2023-03-03T01:48:43.914Z,414.22901
2023-03-03T01:53:45.524Z,417.84615
2023-03-03T01:58:47.181Z,407.15789
2023-03-03T02:03:48.817Z,414.22901
2023-03-03T02:08:50.450Z,407.15789
2023-03-03T02:13:52.064Z,407.15789
2023-03-03T02:18:53.682Z,384
2023-03-03T02:23:55.327Z,374.76923
2023-03-03T02:28:56.949Z,380.87943
2023-03-03T02:33:58.741Z,377.80282
2023-03-03T02:39:00.388Z,432.88889
2023-03-03T02:44:03.214Z,410.66667
2023-03-03T02:49:04.849Z,384
2023-03-03T02:54:06.462Z,407.15789
2023-03-03T02:59:08.064Z,453.09091
2023-03-03T03:04:09.803Z,429.03937
2023-03-03T03:09:11.483Z,421.51938
2023-03-03T03:14:13.220Z,410.66667
2023-03-03T03:19:15.049Z,453.09091
2023-03-03T03:24:16.670Z,407.15789
2023-03-03T03:29:18.298Z,407.15789
2023-03-03T03:34:20.125Z,470.49573
2023-03-03T03:39:21.927Z,421.51938
2023-03-03T03:44:23.519Z,417.84615
2023-03-03T03:49:25.161Z,429.03937
2023-03-03T03:54:26.754Z,429.03937
2023-03-03T03:59:28.494Z,346.61438
2023-03-03T04:04:30.119Z,453.09091
2023-03-03T04:09:31.735Z,396.94118
2023-03-03T04:14:33.368Z,407.15789
2023-03-03T04:19:35.027Z,444.81301
2023-03-03T04:24:36.740Z,410.66667
2023-03-03T04:29:38.340Z,403.70149
2023-03-03T04:34:40.019Z,436.8
2023-03-03T04:39:41.654Z,410.66667
2023-03-03T04:44:43.540Z,403.70149
2023-03-03T04:49:45.190Z,374.76923
2023-03-03T04:54:46.832Z,384
2023-03-03T04:59:48.580Z,341.41935
2023-03-03T05:04:50.330Z,414.22901
2023-03-03T05:09:52.051Z,312.86228
2023-03-03T05:14:53.647Z,338.87179
2023-03-03T05:19:55.459Z,380.87943
2023-03-03T05:24:57.110Z,393.63504
2023-03-03T05:29:58.767Z,396.94118
2023-03-03T05:35:00.402Z,384
2023-03-03T05:40:02.099Z,360.21622
2023-03-03T05:45:03.660Z,354.66667
2023-03-03T05:50:05.344Z,390.37681
2023-03-03T05:55:06.951Z,403.70149
2023-03-03T06:00:08.598Z,374.76923
2023-03-03T06:05:10.202Z,396.94118
2023-03-03T06:10:11.822Z,414.22901
2023-03-03T06:15:13.529Z,410.66667
2023-03-03T06:20:15.228Z,425.25
2023-03-03T06:25:16.809Z,425.25
2023-03-03T06:30:18.546Z,410.66667
2023-03-03T06:35:20.243Z,436.8
2023-03-03T06:40:21.881Z,414.22901
2023-03-03T06:45:23.545Z,407.15789
2023-03-03T06:50:25.253Z,410.66667
2023-03-03T06:55:26.865Z,407.15789
2023-03-03T07:00:30.782Z,400.2963
2023-03-03T07:05:32.965Z,371.77778
2023-03-03T07:10:34.642Z,387.16547
2023-03-03T07:15:36.277Z,387.16547
2023-03-03T07:20:37.880Z,380.87943
2023-03-03T07:25:39.569Z,380.87943
2023-03-03T07:30:41.215Z,444.81301
2023-03-03T07:35:42.937Z,421.51938
2023-03-03T07:40:44.717Z,417.84615
2023-03-03T07:45:46.552Z,421.51938
2023-03-03T07:50:48.215Z,425.25
2023-03-03T07:55:49.844Z,410.66667
2023-03-03T08:00:51.556Z,396.94118
2023-03-03T08:05:53.404Z,440.77419
2023-03-03T08:10:55.071Z,354.66667
2023-03-03T08:15:56.713Z,407.15789
2023-03-03T08:20:58.461Z,407.15789
2023-03-03T08:26:00.088Z,417.84615
2023-03-03T08:31:15.307Z,393.63504
2023-03-03T08:36:19.996Z,432.88889
2023-03-03T08:41:21.620Z,432.88889
2023-03-03T08:46:23.435Z,448.91803
2023-03-03T08:51:25.046Z,414.22901
2023-03-03T08:56:26.672Z,425.25
2023-03-03T09:01:28.493Z,448.91803
2023-03-03T09:06:30.366Z,429.03937
2023-03-03T09:11:31.960Z,410.66667
2023-03-03T09:16:33.621Z,390.37681
2023-03-03T09:21:35.415Z,400.2963
2023-03-03T09:26:37.037Z,396.94118
2023-03-03T09:31:38.732Z,400.2963
2023-03-03T09:36:40.371Z,421.51938
2023-03-03T09:41:42.018Z,400.2963
2023-03-03T09:46:43.644Z,421.51938
2023-03-03T09:51:45.333Z,403.70149
2023-03-03T09:56:47.029Z,407.15789
2023-03-03T10:01:48.629Z,384
2023-03-03T10:06:50.629Z,380.87943
2023-03-03T10:11:52.476Z,407.15789
2023-03-03T10:16:54.191Z,403.70149
2023-03-03T10:21:55.896Z,377.80282
2023-03-03T10:27:11.968Z,365.91781
2023-03-03T10:32:14.699Z,400.2963
2023-03-03T10:37:16.414Z,387.16547
2023-03-03T10:42:18.038Z,396.94118
2023-03-03T10:47:19.813Z,414.22901
2023-03-03T10:52:21.402Z,371.77778
2023-03-03T10:57:23.048Z,349.26316
2023-03-03T11:02:24.704Z,371.77778
2023-03-03T11:07:26.349Z,410.66667
2023-03-03T11:12:27.940Z,390.37681
2023-03-03T11:17:29.572Z,371.77778
2023-03-03T11:22:31.223Z,390.37681
2023-03-03T11:27:32.879Z,421.51938
2023-03-03T11:32:34.703Z,403.70149
2023-03-03T11:37:36.316Z,390.37681
2023-03-03T11:42:37.951Z,410.66667
2023-03-03T11:47:39.643Z,410.66667
2023-03-03T11:52:41.326Z,377.80282
2023-03-03T11:57:42.922Z,371.77778
2023-03-03T12:02:44.653Z,403.70149
2023-03-03T12:07:46.292Z,414.22901
2023-03-03T12:12:47.929Z,400.2963
2023-03-03T12:17:50.761Z,393.63504
2023-03-03T12:23:05.856Z,393.63504
2023-03-03T12:28:08.273Z,360.21622
2023-03-03T12:33:09.911Z,396.94118
2023-03-03T12:38:11.561Z,400.2963
2023-03-03T12:43:13.187Z,393.63504
2023-03-03T12:48:14.881Z,410.66667
2023-03-03T12:53:16.598Z,407.15789
2023-03-03T12:58:18.190Z,432.88889
2023-03-03T13:03:19.839Z,461.64706
2023-03-03T13:08:21.565Z,440.77419
2023-03-03T13:13:23.241Z,371.77778
2023-03-03T13:18:24.843Z,319.60976
2023-03-03T13:23:26.672Z,400.2963
2023-03-03T13:28:28.336Z,410.66667
2023-03-03T13:33:29.918Z,387.16547
2023-03-03T13:38:31.490Z,407.15789
2023-03-03T13:43:33.104Z,365.91781
2023-03-03T13:48:34.797Z,363.04762
2023-03-03T13:53:36.382Z,403.70149
2023-03-03T13:58:37.987Z,377.80282
2023-03-03T14:03:39.704Z,371.77778
2023-03-03T14:08:41.344Z,360.21622
2023-03-03T14:13:42.984Z,365.91781
2023-03-03T14:18:44.639Z,363.04762
2023-03-03T14:23:46.271Z,312.86228
2023-03-03T14:28:47.936Z,294
2023-03-03T14:33:49.744Z,344
2023-03-03T14:38:53.443Z,341.41935
2023-03-03T14:43:55.228Z,414.22901
2023-03-03T14:48:56.894Z,319.60976
2023-03-03T14:53:58.463Z,324.24691
2023-03-03T14:59:00.142Z,344
2023-03-03T15:04:01.892Z,333.87342
2023-03-03T15:09:03.504Z,306.35294
2023-03-03T15:14:05.248Z,312.86228
2023-03-03T15:19:06.877Z,354.66667
2023-03-03T15:24:08.545Z,333.87342
2023-03-03T15:29:10.224Z,326.6087
2023-03-03T15:34:11.999Z,326.6087
2023-03-03T15:39:13.668Z,324.24691
2023-03-03T15:44:15.343Z,319.60976
2023-03-03T15:49:17.022Z,308.49704
2023-03-03T15:54:18.681Z,306.35294
2023-03-03T15:59:20.243Z,329
2023-03-03T16:04:22.027Z,298.02299
2023-03-03T16:09:23.674Z,365.91781
2023-03-03T16:14:25.413Z,396.94118
2023-03-03T16:19:27.014Z,360.21622
2023-03-03T16:24:28.620Z,360.21622
2023-03-03T16:29:30.274Z,374.76923
2023-03-03T16:34:32.071Z,400.2963
2023-03-03T16:39:33.673Z,414.22901
2023-03-03T16:44:35.397Z,436.8
2023-03-03T16:49:36.997Z,421.51938
2023-03-03T16:54:38.708Z,429.03937
2023-03-03T16:59:40.365Z,417.84615
2023-03-03T17:04:42.237Z,432.88889
2023-03-03T17:09:43.900Z,421.51938
2023-03-03T17:14:45.475Z,432.88889
2023-03-03T17:19:47.219Z,400.2963
2023-03-03T17:24:48.943Z,414.22901
2023-03-03T17:29:50.825Z,410.66667
2023-03-03T17:34:52.446Z,448.91803
2023-03-03T17:39:54.071Z,489.13274
2023-03-03T17:44:55.686Z,489.13274
2023-03-03T17:49:57.276Z,475.03448
2023-03-03T17:54:58.858Z,475.03448
2023-03-03T18:00:00.515Z,489.13274
2023-03-03T18:05:02.201Z,484.35088
2023-03-03T18:10:03.814Z,530.66667
2023-03-03T18:15:05.487Z,489.13274
2023-03-03T18:20:07.335Z,519.70093
2023-03-03T18:25:08.949Z,560
2023-03-03T18:30:10.654Z,530.66667
2023-03-03T18:35:12.277Z,519.70093
2023-03-03T18:40:14.024Z,530.66667
2023-03-03T18:45:15.706Z,489.13274
2023-03-03T18:50:17.409Z,0
2023-03-03T18:55:19.098Z,0
2023-03-03T19:00:20.807Z,509.13761
2023-03-03T19:05:22.491Z,0
2023-03-03T19:10:24.139Z,0
2023-03-03T19:15:25.943Z,0
2023-03-03T19:20:29.933Z,0
2023-03-03T19:25:32.428Z,0
2023-03-03T19:30:34.105Z,0
2023-03-03T19:35:35.836Z,0
2023-03-03T19:40:37.515Z,0
2023-03-03T19:45:39.251Z,0
2023-03-03T19:50:40.974Z,0
2023-03-03T19:55:42.805Z,0
2023-03-03T20:00:44.477Z,0
2023-03-03T20:05:46.087Z,0
2023-03-03T20:10:47.713Z,0
2023-03-03T20:15:49.400Z,0
2023-03-03T20:20:51.051Z,504
2023-03-03T20:25:52.720Z,560
2023-03-03T20:30:54.649Z,525.13208
2023-03-03T20:35:56.343Z,553.90099
2023-03-03T20:40:57.990Z,536.30769
2023-03-03T20:45:59.635Z,566.22222
2023-03-03T20:51:01.262Z,553.90099
2023-03-03T20:56:02.965Z,0
2023-03-03T21:01:04.625Z,0
2023-03-03T21:06:06.225Z,0
2023-03-03T21:11:07.965Z,0
2023-03-03T21:16:09.606Z,668.70588
2023-03-03T21:21:11.237Z,714
2023-03-03T21:26:12.881Z,723.74684
2023-03-03T21:31:14.513Z,723.74684
2023-03-03T21:36:16.137Z,704.49383
2023-03-03T21:41:17.847Z,0
2023-03-03T21:46:19.526Z,0
2023-03-03T21:51:21.303Z,579.05155
2023-03-03T21:56:23.168Z,585.66667
2023-03-03T22:01:24.855Z,636.13483
2023-03-03T22:06:26.625Z,0
2023-03-03T22:11:28.350Z,0
2023-03-03T22:16:29.959Z,0
2023-03-03T22:21:31.600Z,0
2023-03-03T22:26:33.206Z,0
2023-03-03T22:31:35.184Z,0
2023-03-03T22:36:36.862Z,660.27907
2023-03-03T22:41:38.474Z,677.33333
2023-03-03T22:46:40.246Z,644
2023-03-03T22:51:41.985Z,652.04598
2023-03-03T22:56:43.753Z,644
2023-03-03T23:01:45.392Z,660.27907
2023-03-03T23:06:47.134Z,677.33333
2023-03-03T23:11:48.773Z,628.44444
2023-03-03T23:16:50.423Z,668.70588
2023-03-03T23:21:52.004Z,668.70588
2023-03-03T23:26:53.622Z,620.92308
2023-03-03T23:31:55.329Z,620.92308
2023-03-03T23:36:57.113Z,628.44444
2023-03-03T23:41:58.725Z,652.04598
2023-03-03T23:47:00.335Z,652.04598
2023-03-03T23:52:01.914Z,599.31915
2023-03-03T23:57:03.590Z,644
